sensor_id;sensor_type;location;lat;lon;timestamp;P1;durP1;ratioP1;P2;durP2;ratioP2
67889;SDS011;54685;52.082;5.426;2024-01-25T00:01:37;31.27;;;4.63;;
67889;SDS011;54685;52.082;5.426;2024-01-25T00:04:05;32.55;;;4.85;;
67889;SDS011;54685;52.082;5.426;2024-01-25T00:06:34;30.05;;;4.68;;
67889;SDS011;54685;52.082;5.426;2024-01-25T00:09:01;38.53;;;5.13;;
67889;SDS011;54685;52.082;5.426;2024-01-25T00:11:30;37.72;;;4.80;;
67889;SDS011;54685;52.082;5.426;2024-01-25T00:14:00;38.25;;;4.68;;
67889;SDS011;54685;52.082;5.426;2024-01-25T00:16:27;35.75;;;5.15;;
67889;SDS011;54685;52.082;5.426;2024-01-25T00:18:54;37.05;;;5.15;;
67889;SDS011;54685;52.082;5.426;2024-01-25T00:21:21;44.67;;;5.25;;
67889;SDS011;54685;52.082;5.426;2024-01-25T00:23:47;41.83;;;6.32;;
67889;SDS011;54685;52.082;5.426;2024-01-25T00:26:14;37.17;;;5.50;;
67889;SDS011;54685;52.082;5.426;2024-01-25T00:28:41;36.17;;;5.93;;
67889;SDS011;54685;52.082;5.426;2024-01-25T00:31:09;41.42;;;4.72;;
67889;SDS011;54685;52.082;5.426;2024-01-25T00:33:36;48.00;;;5.75;;
67889;SDS011;54685;52.082;5.426;2024-01-25T00:36:06;33.58;;;4.55;;
67889;SDS011;54685;52.082;5.426;2024-01-25T00:38:33;33.15;;;5.00;;
67889;SDS011;54685;52.082;5.426;2024-01-25T00:41:07;46.65;;;6.32;;
67889;SDS011;54685;52.082;5.426;2024-01-25T00:43:35;33.78;;;5.85;;
67889;SDS011;54685;52.082;5.426;2024-01-25T00:46:02;34.63;;;5.45;;
67889;SDS011;54685;52.082;5.426;2024-01-25T00:48:29;32.83;;;5.10;;
67889;SDS011;54685;52.082;5.426;2024-01-25T00:50:57;33.85;;;4.65;;
67889;SDS011;54685;52.082;5.426;2024-01-25T00:53:24;38.88;;;6.43;;
67889;SDS011;54685;52.082;5.426;2024-01-25T00:55:51;38.42;;;5.47;;
67889;SDS011;54685;52.082;5.426;2024-01-25T00:58:19;40.72;;;5.72;;
67889;SDS011;54685;52.082;5.426;2024-01-25T01:00:46;50.60;;;6.00;;
67889;SDS011;54685;52.082;5.426;2024-01-25T01:03:13;39.78;;;6.10;;
67889;SDS011;54685;52.082;5.426;2024-01-25T01:05:43;35.00;;;5.80;;
67889;SDS011;54685;52.082;5.426;2024-01-25T01:08:10;37.42;;;4.95;;
67889;SDS011;54685;52.082;5.426;2024-01-25T01:10:37;27.92;;;4.82;;
67889;SDS011;54685;52.082;5.426;2024-01-25T01:13:04;47.92;;;6.22;;
67889;SDS011;54685;52.082;5.426;2024-01-25T01:15:31;39.85;;;5.22;;
67889;SDS011;54685;52.082;5.426;2024-01-25T01:18:00;34.67;;;4.40;;
67889;SDS011;54685;52.082;5.426;2024-01-25T01:20:27;41.15;;;6.35;;
67889;SDS011;54685;52.082;5.426;2024-01-25T01:22:54;35.08;;;5.63;;
67889;SDS011;54685;52.082;5.426;2024-01-25T01:25:21;38.97;;;5.30;;
67889;SDS011;54685;52.082;5.426;2024-01-25T01:27:48;47.30;;;5.32;;
67889;SDS011;54685;52.082;5.426;2024-01-25T01:30:16;42.85;;;5.38;;
67889;SDS011;54685;52.082;5.426;2024-01-25T01:32:46;34.63;;;5.03;;
67889;SDS011;54685;52.082;5.426;2024-01-25T01:35:14;44.65;;;5.65;;
67889;SDS011;54685;52.082;5.426;2024-01-25T01:37:41;34.53;;;5.70;;
67889;SDS011;54685;52.082;5.426;2024-01-25T01:40:08;39.50;;;5.13;;
67889;SDS011;54685;52.082;5.426;2024-01-25T01:42:35;38.20;;;5.63;;
67889;SDS011;54685;52.082;5.426;2024-01-25T01:45:02;48.60;;;6.07;;
67889;SDS011;54685;52.082;5.426;2024-01-25T01:47:29;39.55;;;4.78;;
67889;SDS011;54685;52.082;5.426;2024-01-25T01:49:56;45.28;;;5.57;;
67889;SDS011;54685;52.082;5.426;2024-01-25T01:52:24;38.75;;;5.05;;
67889;SDS011;54685;52.082;5.426;2024-01-25T01:54:54;39.70;;;4.55;;
67889;SDS011;54685;52.082;5.426;2024-01-25T01:57:21;34.33;;;4.72;;
67889;SDS011;54685;52.082;5.426;2024-01-25T01:59:49;24.75;;;4.72;;
67889;SDS011;54685;52.082;5.426;2024-01-25T02:02:17;32.10;;;5.05;;
67889;SDS011;54685;52.082;5.426;2024-01-25T02:04:44;24.65;;;3.95;;
67889;SDS011;54685;52.082;5.426;2024-01-25T02:07:11;34.97;;;5.30;;
67889;SDS011;54685;52.082;5.426;2024-01-25T02:09:38;36.90;;;5.15;;
67889;SDS011;54685;52.082;5.426;2024-01-25T02:12:06;37.80;;;4.72;;
67889;SDS011;54685;52.082;5.426;2024-01-25T02:14:35;28.42;;;4.60;;
67889;SDS011;54685;52.082;5.426;2024-01-25T02:17:02;42.03;;;6.55;;
67889;SDS011;54685;52.082;5.426;2024-01-25T02:19:29;37.83;;;4.97;;
67889;SDS011;54685;52.082;5.426;2024-01-25T02:21:56;43.13;;;4.97;;
67889;SDS011;54685;52.082;5.426;2024-01-25T02:24:25;29.58;;;3.95;;
67889;SDS011;54685;52.082;5.426;2024-01-25T02:26:51;41.83;;;5.32;;
67889;SDS011;54685;52.082;5.426;2024-01-25T02:29:20;34.75;;;4.85;;
67889;SDS011;54685;52.082;5.426;2024-01-25T02:31:47;34.10;;;4.70;;
67889;SDS011;54685;52.082;5.426;2024-01-25T02:34:14;36.45;;;4.75;;
67889;SDS011;54685;52.082;5.426;2024-01-25T02:36:41;29.10;;;4.63;;
67889;SDS011;54685;52.082;5.426;2024-01-25T02:39:08;37.75;;;5.65;;
67889;SDS011;54685;52.082;5.426;2024-01-25T02:41:35;29.02;;;4.65;;
67889;SDS011;54685;52.082;5.426;2024-01-25T02:44:02;39.72;;;6.43;;
67889;SDS011;54685;52.082;5.426;2024-01-25T02:46:29;34.25;;;4.95;;
67889;SDS011;54685;52.082;5.426;2024-01-25T02:48:56;34.00;;;5.18;;
67889;SDS011;54685;52.082;5.426;2024-01-25T02:51:23;32.95;;;5.35;;
67889;SDS011;54685;52.082;5.426;2024-01-25T02:53:49;44.83;;;6.00;;
67889;SDS011;54685;52.082;5.426;2024-01-25T02:56:16;32.42;;;4.82;;
67889;SDS011;54685;52.082;5.426;2024-01-25T02:58:43;31.52;;;4.93;;
67889;SDS011;54685;52.082;5.426;2024-01-25T03:01:10;40.22;;;5.50;;
67889;SDS011;54685;52.082;5.426;2024-01-25T03:03:36;41.70;;;4.90;;
67889;SDS011;54685;52.082;5.426;2024-01-25T03:06:05;38.75;;;4.97;;
67889;SDS011;54685;52.082;5.426;2024-01-25T03:08:33;32.10;;;4.50;;
67889;SDS011;54685;52.082;5.426;2024-01-25T03:11:00;31.92;;;5.35;;
67889;SDS011;54685;52.082;5.426;2024-01-25T03:13:29;45.38;;;5.60;;
67889;SDS011;54685;52.082;5.426;2024-01-25T03:15:56;31.05;;;4.43;;
67889;SDS011;54685;52.082;5.426;2024-01-25T03:18:23;38.03;;;5.95;;
67889;SDS011;54685;52.082;5.426;2024-01-25T03:20:50;41.13;;;4.72;;
67889;SDS011;54685;52.082;5.426;2024-01-25T03:23:17;34.42;;;3.97;;
67889;SDS011;54685;52.082;5.426;2024-01-25T03:25:44;41.75;;;5.35;;
67889;SDS011;54685;52.082;5.426;2024-01-25T03:28:13;37.08;;;5.18;;
67889;SDS011;54685;52.082;5.426;2024-01-25T03:30:42;40.63;;;4.90;;
67889;SDS011;54685;52.082;5.426;2024-01-25T03:33:09;38.90;;;5.22;;
67889;SDS011;54685;52.082;5.426;2024-01-25T03:35:39;39.55;;;5.63;;
67889;SDS011;54685;52.082;5.426;2024-01-25T03:38:06;37.20;;;5.40;;
67889;SDS011;54685;52.082;5.426;2024-01-25T03:40:32;42.80;;;6.03;;
67889;SDS011;54685;52.082;5.426;2024-01-25T03:42:59;41.33;;;4.80;;
67889;SDS011;54685;52.082;5.426;2024-01-25T03:45:44;29.13;;;4.30;;
67889;SDS011;54685;52.082;5.426;2024-01-25T03:48:11;41.05;;;5.80;;
67889;SDS011;54685;52.082;5.426;2024-01-25T03:50:38;47.17;;;5.63;;
67889;SDS011;54685;52.082;5.426;2024-01-25T03:53:06;42.83;;;6.03;;
67889;SDS011;54685;52.082;5.426;2024-01-25T03:55:33;27.75;;;3.90;;
67889;SDS011;54685;52.082;5.426;2024-01-25T03:58:00;31.42;;;4.40;;
67889;SDS011;54685;52.082;5.426;2024-01-25T04:00:28;40.00;;;4.88;;
67889;SDS011;54685;52.082;5.426;2024-01-25T04:02:55;35.40;;;5.43;;
67889;SDS011;54685;52.082;5.426;2024-01-25T04:05:22;41.25;;;5.28;;
67889;SDS011;54685;52.082;5.426;2024-01-25T04:07:49;40.78;;;5.47;;
67889;SDS011;54685;52.082;5.426;2024-01-25T04:10:15;29.20;;;5.35;;
67889;SDS011;54685;52.082;5.426;2024-01-25T04:12:42;42.17;;;5.50;;
67889;SDS011;54685;52.082;5.426;2024-01-25T04:15:09;32.33;;;5.25;;
67889;SDS011;54685;52.082;5.426;2024-01-25T04:17:39;35.55;;;4.88;;
67889;SDS011;54685;52.082;5.426;2024-01-25T04:20:09;39.75;;;6.00;;
67889;SDS011;54685;52.082;5.426;2024-01-25T04:22:37;34.00;;;4.70;;
67889;SDS011;54685;52.082;5.426;2024-01-25T04:25:04;45.35;;;5.78;;
67889;SDS011;54685;52.082;5.426;2024-01-25T04:27:31;34.40;;;4.30;;
67889;SDS011;54685;52.082;5.426;2024-01-25T04:29:58;31.35;;;4.32;;
67889;SDS011;54685;52.082;5.426;2024-01-25T04:32:25;41.63;;;4.97;;
67889;SDS011;54685;52.082;5.426;2024-01-25T04:34:51;44.25;;;5.07;;
67889;SDS011;54685;52.082;5.426;2024-01-25T04:37:19;42.47;;;5.00;;
67889;SDS011;54685;52.082;5.426;2024-01-25T04:39:45;33.58;;;5.50;;
67889;SDS011;54685;52.082;5.426;2024-01-25T04:42:12;37.70;;;5.38;;
67889;SDS011;54685;52.082;5.426;2024-01-25T04:44:39;36.17;;;5.20;;
67889;SDS011;54685;52.082;5.426;2024-01-25T04:47:06;35.75;;;5.20;;
67889;SDS011;54685;52.082;5.426;2024-01-25T04:49:34;27.40;;;5.13;;
67889;SDS011;54685;52.082;5.426;2024-01-25T04:52:03;32.47;;;5.35;;
67889;SDS011;54685;52.082;5.426;2024-01-25T04:54:30;35.47;;;4.82;;
67889;SDS011;54685;52.082;5.426;2024-01-25T04:56:57;33.45;;;4.57;;
67889;SDS011;54685;52.082;5.426;2024-01-25T04:59:24;38.33;;;5.22;;
67889;SDS011;54685;52.082;5.426;2024-01-25T05:01:53;35.08;;;5.93;;
67889;SDS011;54685;52.082;5.426;2024-01-25T05:04:21;32.50;;;4.80;;
67889;SDS011;54685;52.082;5.426;2024-01-25T05:06:55;48.47;;;5.20;;
67889;SDS011;54685;52.082;5.426;2024-01-25T05:09:22;33.35;;;4.05;;
67889;SDS011;54685;52.082;5.426;2024-01-25T05:11:49;33.75;;;4.25;;
67889;SDS011;54685;52.082;5.426;2024-01-25T05:14:17;38.75;;;4.88;;
67889;SDS011;54685;52.082;5.426;2024-01-25T05:16:43;41.92;;;5.93;;
67889;SDS011;54685;52.082;5.426;2024-01-25T05:19:16;44.42;;;4.82;;
67889;SDS011;54685;52.082;5.426;2024-01-25T05:21:43;40.83;;;5.75;;
67889;SDS011;54685;52.082;5.426;2024-01-25T05:24:10;27.25;;;4.07;;
67889;SDS011;54685;52.082;5.426;2024-01-25T05:26:37;48.00;;;5.72;;
67889;SDS011;54685;52.082;5.426;2024-01-25T05:29:05;46.30;;;6.80;;
67889;SDS011;54685;52.082;5.426;2024-01-25T05:31:32;36.42;;;5.43;;
67889;SDS011;54685;52.082;5.426;2024-01-25T05:33:59;32.88;;;5.45;;
67889;SDS011;54685;52.082;5.426;2024-01-25T05:36:26;44.03;;;5.13;;
67889;SDS011;54685;52.082;5.426;2024-01-25T05:38:53;40.20;;;5.43;;
67889;SDS011;54685;52.082;5.426;2024-01-25T05:41:20;39.78;;;5.80;;
67889;SDS011;54685;52.082;5.426;2024-01-25T05:43:49;35.35;;;5.60;;
67889;SDS011;54685;52.082;5.426;2024-01-25T05:46:16;38.30;;;4.88;;
67889;SDS011;54685;52.082;5.426;2024-01-25T05:48:43;41.95;;;5.55;;
67889;SDS011;54685;52.082;5.426;2024-01-25T05:51:10;40.10;;;4.95;;
67889;SDS011;54685;52.082;5.426;2024-01-25T05:53:37;33.17;;;5.03;;
67889;SDS011;54685;52.082;5.426;2024-01-25T05:56:03;30.85;;;5.53;;
67889;SDS011;54685;52.082;5.426;2024-01-25T05:58:30;39.30;;;6.15;;
67889;SDS011;54685;52.082;5.426;2024-01-25T06:00:58;48.05;;;5.53;;
67889;SDS011;54685;52.082;5.426;2024-01-25T06:03:25;46.58;;;5.68;;
67889;SDS011;54685;52.082;5.426;2024-01-25T06:05:57;37.85;;;5.22;;
67889;SDS011;54685;52.082;5.426;2024-01-25T06:08:26;36.50;;;5.55;;
67889;SDS011;54685;52.082;5.426;2024-01-25T06:10:53;32.42;;;5.15;;
67889;SDS011;54685;52.082;5.426;2024-01-25T06:13:20;34.03;;;4.70;;
67889;SDS011;54685;52.082;5.426;2024-01-25T06:15:50;33.20;;;5.15;;
67889;SDS011;54685;52.082;5.426;2024-01-25T06:18:17;46.65;;;5.63;;
67889;SDS011;54685;52.082;5.426;2024-01-25T06:20:45;41.00;;;5.40;;
67889;SDS011;54685;52.082;5.426;2024-01-25T06:23:14;37.22;;;5.22;;
67889;SDS011;54685;52.082;5.426;2024-01-25T06:25:40;33.70;;;5.60;;
67889;SDS011;54685;52.082;5.426;2024-01-25T06:28:07;39.53;;;6.53;;
67889;SDS011;54685;52.082;5.426;2024-01-25T06:30:34;41.05;;;5.40;;
67889;SDS011;54685;52.082;5.426;2024-01-25T06:33:01;36.53;;;5.22;;
67889;SDS011;54685;52.082;5.426;2024-01-25T06:35:28;38.78;;;5.38;;
67889;SDS011;54685;52.082;5.426;2024-01-25T06:37:58;48.50;;;5.75;;
67889;SDS011;54685;52.082;5.426;2024-01-25T06:40:25;43.72;;;5.18;;
67889;SDS011;54685;52.082;5.426;2024-01-25T06:42:53;37.40;;;4.40;;
67889;SDS011;54685;52.082;5.426;2024-01-25T06:45:19;46.30;;;6.18;;
67889;SDS011;54685;52.082;5.426;2024-01-25T06:47:46;41.17;;;5.80;;
67889;SDS011;54685;52.082;5.426;2024-01-25T06:50:13;42.03;;;5.90;;
67889;SDS011;54685;52.082;5.426;2024-01-25T06:52:41;40.80;;;5.55;;
67889;SDS011;54685;52.082;5.426;2024-01-25T06:55:10;47.42;;;6.10;;
67889;SDS011;54685;52.082;5.426;2024-01-25T06:57:38;39.53;;;5.90;;
67889;SDS011;54685;52.082;5.426;2024-01-25T07:00:05;34.45;;;5.63;;
67889;SDS011;54685;52.082;5.426;2024-01-25T07:02:33;58.40;;;7.88;;
67889;SDS011;54685;52.082;5.426;2024-01-25T07:05:00;38.90;;;5.88;;
67889;SDS011;54685;52.082;5.426;2024-01-25T07:07:28;42.10;;;7.00;;
67889;SDS011;54685;52.082;5.426;2024-01-25T07:09:55;55.78;;;6.85;;
67889;SDS011;54685;52.082;5.426;2024-01-25T07:12:22;39.72;;;6.40;;
67889;SDS011;54685;52.082;5.426;2024-01-25T07:14:52;37.55;;;6.75;;
67889;SDS011;54685;52.082;5.426;2024-01-25T07:17:19;40.92;;;7.50;;
67889;SDS011;54685;52.082;5.426;2024-01-25T07:19:46;39.25;;;7.35;;
67889;SDS011;54685;52.082;5.426;2024-01-25T07:22:13;47.90;;;8.35;;
67889;SDS011;54685;52.082;5.426;2024-01-25T07:24:41;36.70;;;7.00;;
67889;SDS011;54685;52.082;5.426;2024-01-25T07:27:08;52.63;;;7.80;;
67889;SDS011;54685;52.082;5.426;2024-01-25T07:29:36;44.30;;;7.32;;
67889;SDS011;54685;52.082;5.426;2024-01-25T07:32:04;53.88;;;8.52;;
67889;SDS011;54685;52.082;5.426;2024-01-25T07:34:31;41.38;;;7.43;;
67889;SDS011;54685;52.082;5.426;2024-01-25T07:36:58;47.35;;;7.35;;
67889;SDS011;54685;52.082;5.426;2024-01-25T07:39:32;49.83;;;7.63;;
67889;SDS011;54685;52.082;5.426;2024-01-25T07:41:59;46.15;;;7.25;;
67889;SDS011;54685;52.082;5.426;2024-01-25T07:44:26;43.67;;;7.88;;
67889;SDS011;54685;52.082;5.426;2024-01-25T07:46:53;38.33;;;5.82;;
67889;SDS011;54685;52.082;5.426;2024-01-25T07:49:20;46.70;;;7.35;;
67889;SDS011;54685;52.082;5.426;2024-01-25T07:51:47;33.25;;;6.55;;
67889;SDS011;54685;52.082;5.426;2024-01-25T07:54:15;33.60;;;6.13;;
67889;SDS011;54685;52.082;5.426;2024-01-25T07:56:42;39.63;;;6.10;;
67889;SDS011;54685;52.082;5.426;2024-01-25T07:59:09;51.97;;;7.05;;
67889;SDS011;54685;52.082;5.426;2024-01-25T08:01:36;58.35;;;7.30;;
67889;SDS011;54685;52.082;5.426;2024-01-25T08:04:03;31.80;;;5.97;;
67889;SDS011;54685;52.082;5.426;2024-01-25T08:06:30;41.40;;;6.75;;
67889;SDS011;54685;52.082;5.426;2024-01-25T08:08:57;38.40;;;6.68;;
67889;SDS011;54685;52.082;5.426;2024-01-25T08:11:24;43.40;;;6.63;;
67889;SDS011;54685;52.082;5.426;2024-01-25T08:13:54;38.42;;;6.60;;
67889;SDS011;54685;52.082;5.426;2024-01-25T08:16:21;39.05;;;6.07;;
67889;SDS011;54685;52.082;5.426;2024-01-25T08:18:48;44.72;;;6.35;;
67889;SDS011;54685;52.082;5.426;2024-01-25T08:21:16;48.58;;;7.65;;
67889;SDS011;54685;52.082;5.426;2024-01-25T08:23:44;47.65;;;9.18;;
67889;SDS011;54685;52.082;5.426;2024-01-25T08:26:10;46.05;;;8.35;;
67889;SDS011;54685;52.082;5.426;2024-01-25T08:28:40;44.53;;;8.30;;
67889;SDS011;54685;52.082;5.426;2024-01-25T08:31:07;48.42;;;9.30;;
67889;SDS011;54685;52.082;5.426;2024-01-25T08:33:34;34.50;;;8.07;;
67889;SDS011;54685;52.082;5.426;2024-01-25T08:36:08;46.95;;;8.10;;
67889;SDS011;54685;52.082;5.426;2024-01-25T08:38:35;35.20;;;6.00;;
67889;SDS011;54685;52.082;5.426;2024-01-25T08:41:02;42.10;;;6.05;;
67889;SDS011;54685;52.082;5.426;2024-01-25T08:43:29;38.92;;;6.13;;
67889;SDS011;54685;52.082;5.426;2024-01-25T08:45:59;38.25;;;5.78;;
67889;SDS011;54685;52.082;5.426;2024-01-25T08:48:26;51.10;;;6.75;;
67889;SDS011;54685;52.082;5.426;2024-01-25T08:50:53;32.88;;;6.10;;
67889;SDS011;54685;52.082;5.426;2024-01-25T08:53:23;45.80;;;7.25;;
67889;SDS011;54685;52.082;5.426;2024-01-25T08:55:54;43.13;;;6.05;;
67889;SDS011;54685;52.082;5.426;2024-01-25T08:58:21;43.35;;;7.43;;
67889;SDS011;54685;52.082;5.426;2024-01-25T09:00:49;43.25;;;8.85;;
67889;SDS011;54685;52.082;5.426;2024-01-25T09:03:16;43.47;;;8.25;;
67889;SDS011;54685;52.082;5.426;2024-01-25T09:05:42;32.85;;;6.28;;
67889;SDS011;54685;52.082;5.426;2024-01-25T09:08:13;35.60;;;5.72;;
67889;SDS011;54685;52.082;5.426;2024-01-25T09:10:41;42.22;;;6.28;;
67889;SDS011;54685;52.082;5.426;2024-01-25T09:13:08;34.78;;;5.88;;
67889;SDS011;54685;52.082;5.426;2024-01-25T09:15:35;42.60;;;6.28;;
67889;SDS011;54685;52.082;5.426;2024-01-25T09:18:03;35.88;;;5.35;;
67889;SDS011;54685;52.082;5.426;2024-01-25T09:20:30;46.45;;;5.90;;
67889;SDS011;54685;52.082;5.426;2024-01-25T09:22:57;35.67;;;5.13;;
67889;SDS011;54685;52.082;5.426;2024-01-25T09:25:24;49.20;;;6.43;;
67889;SDS011;54685;52.082;5.426;2024-01-25T09:27:51;38.78;;;5.70;;
67889;SDS011;54685;52.082;5.426;2024-01-25T09:30:19;36.92;;;5.65;;
67889;SDS011;54685;52.082;5.426;2024-01-25T09:32:47;43.72;;;6.43;;
67889;SDS011;54685;52.082;5.426;2024-01-25T09:35:15;36.00;;;5.93;;
67889;SDS011;54685;52.082;5.426;2024-01-25T09:37:42;37.63;;;5.70;;
67889;SDS011;54685;52.082;5.426;2024-01-25T09:40:09;43.20;;;5.95;;
67889;SDS011;54685;52.082;5.426;2024-01-25T09:42:37;42.47;;;7.20;;
67889;SDS011;54685;52.082;5.426;2024-01-25T09:45:08;32.67;;;6.63;;
67889;SDS011;54685;52.082;5.426;2024-01-25T09:47:37;46.92;;;7.85;;
67889;SDS011;54685;52.082;5.426;2024-01-25T09:50:04;38.33;;;6.85;;
67889;SDS011;54685;52.082;5.426;2024-01-25T09:52:36;41.20;;;6.55;;
67889;SDS011;54685;52.082;5.426;2024-01-25T09:55:05;40.90;;;8.88;;
67889;SDS011;54685;52.082;5.426;2024-01-25T09:57:35;35.65;;;7.43;;
67889;SDS011;54685;52.082;5.426;2024-01-25T10:00:04;40.33;;;8.80;;
67889;SDS011;54685;52.082;5.426;2024-01-25T10:02:32;48.25;;;9.60;;
67889;SDS011;54685;52.082;5.426;2024-01-25T10:04:59;39.50;;;8.95;;
67889;SDS011;54685;52.082;5.426;2024-01-25T10:07:36;44.63;;;8.43;;
67889;SDS011;54685;52.082;5.426;2024-01-25T10:10:11;46.33;;;8.20;;
67889;SDS011;54685;52.082;5.426;2024-01-25T10:12:39;46.03;;;8.25;;
67889;SDS011;54685;52.082;5.426;2024-01-25T10:15:10;32.88;;;7.50;;
67889;SDS011;54685;52.082;5.426;2024-01-25T10:17:38;35.60;;;7.10;;
67889;SDS011;54685;52.082;5.426;2024-01-25T10:20:25;36.28;;;6.30;;
67889;SDS011;54685;52.082;5.426;2024-01-25T10:22:57;44.55;;;7.22;;
67889;SDS011;54685;52.082;5.426;2024-01-25T10:25:26;36.03;;;7.38;;
67889;SDS011;54685;52.082;5.426;2024-01-25T10:27:54;39.00;;;6.72;;
67889;SDS011;54685;52.082;5.426;2024-01-25T10:30:21;42.85;;;6.97;;
67889;SDS011;54685;52.082;5.426;2024-01-25T10:32:49;40.15;;;7.10;;
67889;SDS011;54685;52.082;5.426;2024-01-25T10:35:17;34.03;;;6.60;;
67889;SDS011;54685;52.082;5.426;2024-01-25T10:37:50;33.45;;;7.60;;
67889;SDS011;54685;52.082;5.426;2024-01-25T10:40:20;38.30;;;7.63;;
67889;SDS011;54685;52.082;5.426;2024-01-25T10:42:49;47.93;;;7.90;;
67889;SDS011;54685;52.082;5.426;2024-01-25T10:45:18;34.97;;;8.25;;
67889;SDS011;54685;52.082;5.426;2024-01-25T10:47:47;36.63;;;8.02;;
67889;SDS011;54685;52.082;5.426;2024-01-25T10:50:15;32.10;;;7.50;;
67889;SDS011;54685;52.082;5.426;2024-01-25T10:52:45;38.30;;;7.30;;
67889;SDS011;54685;52.082;5.426;2024-01-25T10:55:13;28.50;;;6.68;;
67889;SDS011;54685;52.082;5.426;2024-01-25T10:57:44;42.83;;;7.57;;
67889;SDS011;54685;52.082;5.426;2024-01-25T11:00:12;35.08;;;7.15;;
67889;SDS011;54685;52.082;5.426;2024-01-25T11:02:42;42.60;;;7.40;;
67889;SDS011;54685;52.082;5.426;2024-01-25T11:07:45;33.85;;;6.15;;
67889;SDS011;54685;52.082;5.426;2024-01-25T11:10:18;34.97;;;7.47;;
67889;SDS011;54685;52.082;5.426;2024-01-25T11:12:50;35.92;;;6.78;;
67889;SDS011;54685;52.082;5.426;2024-01-25T11:15:21;36.28;;;7.00;;
67889;SDS011;54685;52.082;5.426;2024-01-25T11:17:53;34.22;;;6.63;;
67889;SDS011;54685;52.082;5.426;2024-01-25T11:20:22;34.67;;;7.18;;
67889;SDS011;54685;52.082;5.426;2024-01-25T11:25:32;36.72;;;6.82;;
67889;SDS011;54685;52.082;5.426;2024-01-25T11:28:06;32.33;;;6.85;;
67889;SDS011;54685;52.082;5.426;2024-01-25T11:30:34;37.63;;;7.95;;
67889;SDS011;54685;52.082;5.426;2024-01-25T11:33:09;40.28;;;7.13;;
67889;SDS011;54685;52.082;5.426;2024-01-25T11:35:37;35.28;;;6.78;;
67889;SDS011;54685;52.082;5.426;2024-01-25T11:38:04;46.05;;;8.25;;
67889;SDS011;54685;52.082;5.426;2024-01-25T11:40:31;25.48;;;6.28;;
67889;SDS011;54685;52.082;5.426;2024-01-25T11:43:04;40.28;;;7.35;;
67889;SDS011;54685;52.082;5.426;2024-01-25T11:45:38;32.67;;;7.13;;
67889;SDS011;54685;52.082;5.426;2024-01-25T11:48:09;37.28;;;8.23;;
67889;SDS011;54685;52.082;5.426;2024-01-25T11:50:37;34.47;;;7.50;;
67889;SDS011;54685;52.082;5.426;2024-01-25T11:53:04;36.45;;;7.85;;
67889;SDS011;54685;52.082;5.426;2024-01-25T11:55:31;39.55;;;8.43;;
67889;SDS011;54685;52.082;5.426;2024-01-25T11:57:58;39.63;;;8.23;;
67889;SDS011;54685;52.082;5.426;2024-01-25T12:00:25;39.47;;;8.57;;
67889;SDS011;54685;52.082;5.426;2024-01-25T12:02:51;36.97;;;7.80;;
67889;SDS011;54685;52.082;5.426;2024-01-25T12:05:19;43.85;;;8.48;;
67889;SDS011;54685;52.082;5.426;2024-01-25T12:07:47;35.35;;;7.63;;
67889;SDS011;54685;52.082;5.426;2024-01-25T12:10:17;41.83;;;8.48;;
67889;SDS011;54685;52.082;5.426;2024-01-25T12:12:44;52.33;;;8.95;;
67889;SDS011;54685;52.082;5.426;2024-01-25T12:15:11;45.90;;;9.57;;
67889;SDS011;54685;52.082;5.426;2024-01-25T12:17:38;48.13;;;10.00;;
67889;SDS011;54685;52.082;5.426;2024-01-25T12:20:06;41.42;;;8.70;;
67889;SDS011;54685;52.082;5.426;2024-01-25T12:22:38;45.78;;;9.32;;
67889;SDS011;54685;52.082;5.426;2024-01-25T12:25:08;33.60;;;8.10;;
67889;SDS011;54685;52.082;5.426;2024-01-25T12:27:36;45.60;;;9.25;;
67889;SDS011;54685;52.082;5.426;2024-01-25T12:30:07;41.67;;;8.77;;
67889;SDS011;54685;52.082;5.426;2024-01-25T12:32:37;44.40;;;8.82;;
67889;SDS011;54685;52.082;5.426;2024-01-25T12:35:04;36.58;;;8.18;;
67889;SDS011;54685;52.082;5.426;2024-01-25T12:37:32;41.22;;;9.63;;
67889;SDS011;54685;52.082;5.426;2024-01-25T12:39:59;37.05;;;9.15;;
67889;SDS011;54685;52.082;5.426;2024-01-25T12:42:26;35.30;;;8.15;;
67889;SDS011;54685;52.082;5.426;2024-01-25T12:44:53;34.92;;;8.10;;
67889;SDS011;54685;52.082;5.426;2024-01-25T12:47:23;45.92;;;8.30;;
67889;SDS011;54685;52.082;5.426;2024-01-25T12:49:50;37.90;;;8.30;;
67889;SDS011;54685;52.082;5.426;2024-01-25T12:52:17;30.00;;;7.75;;
67889;SDS011;54685;52.082;5.426;2024-01-25T12:54:44;41.58;;;8.45;;
67889;SDS011;54685;52.082;5.426;2024-01-25T12:57:11;37.92;;;8.00;;
67889;SDS011;54685;52.082;5.426;2024-01-25T12:59:38;35.42;;;8.15;;
67889;SDS011;54685;52.082;5.426;2024-01-25T13:02:05;41.05;;;8.32;;
67889;SDS011;54685;52.082;5.426;2024-01-25T13:04:34;40.08;;;7.68;;
67889;SDS011;54685;52.082;5.426;2024-01-25T13:07:01;44.22;;;9.15;;
67889;SDS011;54685;52.082;5.426;2024-01-25T13:09:28;44.75;;;9.05;;
67889;SDS011;54685;52.082;5.426;2024-01-25T13:11:55;38.88;;;8.95;;
67889;SDS011;54685;52.082;5.426;2024-01-25T13:14:23;46.40;;;9.13;;
67889;SDS011;54685;52.082;5.426;2024-01-25T13:16:50;40.25;;;8.65;;
67889;SDS011;54685;52.082;5.426;2024-01-25T13:19:17;43.83;;;10.05;;
67889;SDS011;54685;52.082;5.426;2024-01-25T13:21:44;42.97;;;9.50;;
67889;SDS011;54685;52.082;5.426;2024-01-25T13:24:11;50.05;;;11.82;;
67889;SDS011;54685;52.082;5.426;2024-01-25T13:26:42;42.30;;;10.10;;
67889;SDS011;54685;52.082;5.426;2024-01-25T13:29:08;41.92;;;10.60;;
67889;SDS011;54685;52.082;5.426;2024-01-25T13:31:39;41.00;;;11.55;;
67889;SDS011;54685;52.082;5.426;2024-01-25T13:34:14;40.42;;;10.43;;
67889;SDS011;54685;52.082;5.426;2024-01-25T13:36:41;40.22;;;10.00;;
67889;SDS011;54685;52.082;5.426;2024-01-25T13:39:08;37.72;;;11.35;;
67889;SDS011;54685;52.082;5.426;2024-01-25T13:41:36;37.38;;;9.60;;
67889;SDS011;54685;52.082;5.426;2024-01-25T13:44:03;42.88;;;11.38;;
67889;SDS011;54685;52.082;5.426;2024-01-25T13:46:30;46.65;;;12.43;;
67889;SDS011;54685;52.082;5.426;2024-01-25T13:48:57;50.83;;;12.80;;
67889;SDS011;54685;52.082;5.426;2024-01-25T13:51:24;46.58;;;10.80;;
67889;SDS011;54685;52.082;5.426;2024-01-25T13:53:51;40.95;;;10.55;;
67889;SDS011;54685;52.082;5.426;2024-01-25T13:56:18;38.00;;;10.10;;
67889;SDS011;54685;52.082;5.426;2024-01-25T13:58:45;39.90;;;10.50;;
67889;SDS011;54685;52.082;5.426;2024-01-25T14:01:11;44.13;;;11.15;;
67889;SDS011;54685;52.082;5.426;2024-01-25T14:03:39;37.03;;;10.43;;
67889;SDS011;54685;52.082;5.426;2024-01-25T14:06:10;39.37;;;11.10;;
67889;SDS011;54685;52.082;5.426;2024-01-25T14:08:38;41.35;;;11.63;;
67889;SDS011;54685;52.082;5.426;2024-01-25T14:11:05;50.58;;;12.32;;
67889;SDS011;54685;52.082;5.426;2024-01-25T14:13:51;43.40;;;11.13;;
67889;SDS011;54685;52.082;5.426;2024-01-25T14:16:19;43.22;;;11.13;;
67889;SDS011;54685;52.082;5.426;2024-01-25T14:18:48;41.60;;;11.20;;
67889;SDS011;54685;52.082;5.426;2024-01-25T14:21:15;39.22;;;10.80;;
67889;SDS011;54685;52.082;5.426;2024-01-25T14:23:42;44.08;;;11.82;;
67889;SDS011;54685;52.082;5.426;2024-01-25T14:26:09;45.90;;;12.38;;
67889;SDS011;54685;52.082;5.426;2024-01-25T14:28:36;46.33;;;12.80;;
67889;SDS011;54685;52.082;5.426;2024-01-25T14:31:03;42.08;;;12.35;;
67889;SDS011;54685;52.082;5.426;2024-01-25T14:33:34;43.28;;;11.88;;
67889;SDS011;54685;52.082;5.426;2024-01-25T14:36:01;49.20;;;11.65;;
67889;SDS011;54685;52.082;5.426;2024-01-25T14:38:30;54.50;;;13.05;;
67889;SDS011;54685;52.082;5.426;2024-01-25T14:40:57;37.53;;;10.82;;
67889;SDS011;54685;52.082;5.426;2024-01-25T14:43:27;50.70;;;13.05;;